We bring you up!

Munich Aviation Company

Munich Aviation Company

Munich Aviation Company

Munich Aviation Company

Sie finden uns auch auf: Munich Aviation Company auf Instagram

Flugwetter Augsburg

[Quelle: ADDS]
METAR
EDMA 041720Z 10002KT CAVOK 10/09 Q1023 =
EDMA 041700Z 0418/0503 11003KT CAVOK BECMG 0420/0422 1200 BCFG BECMG 0422/0424 0300 FG VV001
TAF
EDMA 041700Z 0418/0503 11003KT CAVOK BECMG 0420/0422 1200 BCFG BECMG 0422/0424 0300 FG VV001 =

Kontakt